7N8 weather

Butter Valley Golf Port Airport
Bally, Pennsylvania, United States

Public forecast

Using degrees Fahrenheit for public forecast. Weather courtesy of forecast.io.

METAR (pilot weather report)

Closest report is Quakertown Airport, 8.6 nm (16.0 km) ENE. Retrieved 2019/07/21 18:00 UTC (10 minutes ago):

KUKT 211800Z AUTO VRB06KT 10SM SCT041 SCT055 SCT065 35/25 A2985 RMK A01

TAF (pilot weather forecast)

Closest forecast is Lehigh Valley International Airport, 16.3 nm (30.1 km) NNE. Retrieved 2019/07/21 18:24 UTC (0 seconds ago):

TAF KABE 211720Z 2118/2218 28009KT P6SM BKN080 FM212100 26009KT P6SM VCTS BKN045CB TEMPO 2121/2124 5SM TSRA BKN040CB FM220300 34005KT P6SM BKN200 FM221200 VRB03KT 6SM -SHRA BKN090 FM221600 VRB03KT P6SM +SHRA VCTS OVC040CB